CheckWX is a tool to help pilots better visualize weather data.  It is not intended as a substitute for an official pre-flight weather briefing.

18:51:21 UTC

OPDG TAF
Dera Ghazi Khan Airport
Dera Ghazi Khan, Pakistan
TAF OPDG 221610Z 2218/2312 36005KT 4000 FU FEW040 SCT100 TN09/2301Z TX21/2310Z PROB30 TEMPO 2301/2304 36005KT 6000 FEW100

Feb-22@
18:00 UTC

Feb-22 @ 18:00 UTC

Feb-23@
12:00 UTC

Feb-23 @ 12:00 UTC

TAF OPDG 221610Z 2218/2312 36005KT 4000 FU FEW040 SCT100 TN09/2301Z TX21/2310Z
Wind
  • 360° at 5 KTS
Conditions
Smoke
Cloud Levels
  • Few at 4,000' AGL
  • Scattered at 10,000' AGL

Feb-23@
01:00 UTC

Feb-23 @ 01:00 UTC

Feb-23@
04:00 UTC

Feb-23 @ 04:00 UTC

PROB30 TEMPO 2301/2304 36005KT 6000 FEW100

Temporary - 30% Likelihood

Temporary - 30% Likelihood during this time.

Wind
  • 360° at 5 KTS
Cloud Levels
  • Few at 10,000' AGL